createdAt,value
2022-07-25T00:01:55.815Z,6.40
2022-07-25T00:04:23.909Z,6.80
2022-07-25T00:06:51.111Z,6.97
2022-07-25T00:09:18.001Z,6.82
2022-07-25T00:11:45.267Z,7.05
2022-07-25T00:14:12.309Z,6.68
2022-07-25T00:16:40.059Z,6.25
2022-07-25T00:19:07.369Z,6.38
2022-07-25T00:21:34.300Z,6.47
2022-07-25T00:24:01.187Z,7.20
2022-07-25T00:26:28.035Z,7.22
2022-07-25T00:28:54.924Z,7.22
2022-07-25T00:31:21.916Z,6.88
2022-07-25T00:33:48.892Z,6.93
2022-07-25T00:36:15.772Z,7.30
2022-07-25T00:38:42.664Z,7.82
2022-07-25T00:41:09.690Z,7.88
2022-07-25T00:43:36.649Z,7.35
2022-07-25T00:46:04.027Z,6.63
2022-07-25T00:48:31.568Z,7.13
2022-07-25T00:50:59.715Z,7.50
2022-07-25T00:53:26.965Z,7.40
2022-07-25T00:55:54.902Z,7.72
2022-07-25T00:58:21.800Z,7.20
2022-07-25T01:00:48.834Z,7.35
2022-07-25T01:03:16.766Z,7.22
2022-07-25T01:05:43.824Z,7.47
2022-07-25T01:08:12.451Z,6.72
2022-07-25T01:10:40.024Z,7.75
2022-07-25T01:13:06.987Z,7.38
2022-07-25T01:15:34.210Z,7.68
2022-07-25T01:18:01.098Z,8.20
2022-07-25T01:20:30.540Z,7.45
2022-07-25T01:22:58.725Z,7.35
2022-07-25T01:25:27.706Z,8.13
2022-07-25T01:27:56.130Z,7.90
2022-07-25T01:30:24.913Z,7.50
2022-07-25T01:32:52.669Z,6.80
2022-07-25T01:35:20.142Z,7.70
2022-07-25T01:37:47.218Z,7.50
2022-07-25T01:40:15.071Z,7.53
2022-07-25T01:42:43.264Z,8.07
2022-07-25T01:45:12.110Z,7.47
2022-07-25T01:47:39.079Z,6.93
2022-07-25T01:50:07.086Z,7.50
2022-07-25T01:52:34.028Z,7.50
2022-07-25T01:55:01.023Z,7.22
2022-07-25T01:57:30.835Z,7.00
2022-07-25T01:59:59.110Z,7.50
2022-07-25T02:02:26.835Z,7.07
2022-07-25T02:04:54.248Z,7.13
2022-07-25T02:07:21.216Z,8.20
2022-07-25T02:09:50.153Z,7.28
2022-07-25T02:12:20.402Z,7.05
2022-07-25T02:14:47.316Z,7.55
2022-07-25T02:17:14.296Z,7.72
2022-07-25T02:19:41.258Z,7.43
2022-07-25T02:22:08.323Z,7.88
2022-07-25T02:24:37.100Z,8.75
2022-07-25T02:27:05.824Z,6.90
2022-07-25T02:29:33.343Z,7.93
2022-07-25T02:32:00.319Z,7.57
2022-07-25T02:34:27.298Z,7.13
2022-07-25T02:36:54.256Z,8.48
2022-07-25T02:39:21.464Z,8.85
2022-07-25T02:41:48.356Z,7.93
2022-07-25T02:44:15.259Z,7.85
2022-07-25T02:46:42.188Z,8.55
2022-07-25T02:49:09.124Z,8.02
2022-07-25T02:51:36.049Z,8.30
2022-07-25T02:54:02.918Z,8.10
2022-07-25T02:56:31.975Z,7.20
2022-07-25T02:58:59.263Z,8.27
2022-07-25T03:01:26.899Z,7.45
2022-07-25T03:03:53.904Z,7.78
2022-07-25T03:06:20.942Z,7.60
2022-07-25T03:08:47.850Z,7.80
2022-07-25T03:11:14.842Z,8.43
2022-07-25T03:13:41.688Z,7.85
2022-07-25T03:16:09.804Z,8.25
2022-07-25T03:18:37.228Z,8.05
2022-07-25T03:21:04.479Z,7.43
2022-07-25T03:23:32.287Z,7.57
2022-07-25T03:25:59.255Z,7.50
2022-07-25T03:28:26.316Z,8.95
2022-07-25T03:30:53.734Z,8.32
2022-07-25T03:33:20.627Z,8.02
2022-07-25T03:35:47.564Z,7.55
2022-07-25T03:38:14.567Z,8.15
2022-07-25T03:40:41.577Z,8.27
2022-07-25T03:43:08.639Z,7.55
2022-07-25T03:45:35.617Z,7.88
2022-07-25T03:48:03.323Z,7.70
2022-07-25T03:50:30.269Z,8.07
2022-07-25T03:52:57.211Z,8.07
2022-07-25T03:55:24.080Z,9.10
2022-07-25T03:57:51.045Z,8.77
2022-07-25T04:00:18.740Z,8.48
2022-07-25T04:02:45.734Z,8.98
2022-07-25T04:05:12.919Z,8.73
2022-07-25T04:07:39.890Z,8.57
2022-07-25T04:10:08.209Z,7.93
2022-07-25T04:12:35.109Z,8.45
2022-07-25T04:15:02.257Z,8.75
2022-07-25T04:17:29.248Z,7.50
2022-07-25T04:19:56.253Z,9.05
2022-07-25T04:22:23.638Z,8.40
2022-07-25T04:24:50.666Z,8.77
2022-07-25T04:27:17.523Z,8.95
2022-07-25T04:29:44.425Z,8.07
2022-07-25T04:32:11.446Z,9.05
2022-07-25T04:34:38.376Z,8.23
2022-07-25T04:37:05.231Z,9.00
2022-07-25T04:39:32.433Z,8.52
2022-07-25T04:41:59.429Z,8.85
2022-07-25T04:44:26.440Z,8.40
2022-07-25T04:46:53.296Z,8.23
2022-07-25T04:49:20.381Z,8.82
2022-07-25T04:51:47.285Z,8.60
2022-07-25T04:54:14.184Z,8.73
2022-07-25T04:56:41.037Z,8.57
2022-07-25T04:59:07.936Z,8.35
2022-07-25T05:01:36.290Z,8.75
2022-07-25T05:04:03.349Z,8.15
2022-07-25T05:06:30.522Z,8.02
2022-07-25T05:08:57.323Z,8.55
2022-07-25T05:11:24.231Z,7.90
2022-07-25T05:13:51.103Z,9.05
2022-07-25T05:16:18.006Z,9.05
2022-07-25T05:18:44.949Z,8.63
2022-07-25T05:21:13.531Z,8.90
2022-07-25T05:23:41.244Z,8.85
2022-07-25T05:26:08.289Z,8.43
2022-07-25T05:28:35.845Z,8.38
2022-07-25T05:31:03.023Z,8.65
2022-07-25T05:33:29.999Z,7.78
2022-07-25T05:35:56.896Z,7.63
2022-07-25T05:38:23.736Z,7.40
2022-07-25T05:40:52.278Z,7.97
2022-07-25T05:43:19.681Z,8.40
2022-07-25T05:45:47.477Z,7.30
2022-07-25T05:48:15.327Z,7.97
2022-07-25T05:50:42.479Z,8.35
2022-07-25T05:53:09.506Z,8.38
2022-07-25T05:55:40.265Z,7.05
2022-07-25T05:58:09.436Z,7.82
2022-07-25T06:00:36.912Z,7.88
2022-07-25T06:03:04.213Z,8.00
2022-07-25T06:05:31.575Z,7.78
2022-07-25T06:07:58.538Z,8.50
2022-07-25T06:10:25.689Z,8.70
2022-07-25T06:12:52.959Z,9.05
2022-07-25T06:15:23.092Z,7.55
2022-07-25T06:17:54.667Z,8.02
2022-07-25T06:20:21.887Z,8.50
2022-07-25T06:22:48.872Z,7.75
2022-07-25T06:25:16.106Z,7.85
2022-07-25T06:27:43.003Z,8.48
2022-07-25T06:30:19.739Z,7.93
2022-07-25T06:32:50.987Z,7.70
2022-07-25T06:35:18.623Z,8.40
2022-07-25T06:37:45.916Z,7.90
2022-07-25T06:40:14.364Z,8.50
2022-07-25T06:42:43.760Z,7.55
2022-07-25T06:45:12.232Z,9.05
2022-07-25T06:47:41.493Z,8.23
2022-07-25T06:50:12.612Z,8.73
2022-07-25T06:52:40.843Z,8.43
2022-07-25T06:55:10.137Z,8.55
2022-07-25T06:57:37.748Z,8.15
2022-07-25T07:03:02.759Z,7.63
2022-07-25T07:05:33.890Z,9.85
2022-07-25T07:08:01.208Z,6.78
2022-07-25T07:10:28.890Z,7.65
2022-07-25T07:13:15.217Z,7.70
2022-07-25T07:15:50.299Z,7.60
2022-07-25T07:18:18.779Z,7.60
2022-07-25T07:20:46.224Z,8.10
2022-07-25T07:23:16.550Z,7.30
2022-07-25T07:25:45.836Z,7.57
2022-07-25T07:28:13.036Z,7.88
2022-07-25T07:31:13.372Z,8.43
2022-07-25T07:33:27.045Z,7.60
2022-07-25T07:35:55.961Z,6.85
2022-07-25T07:38:25.194Z,7.93
2022-07-25T07:40:53.638Z,8.52
2022-07-25T07:43:20.663Z,8.07
2022-07-25T07:45:47.622Z,7.72
2022-07-25T07:48:14.494Z,7.15
2022-07-25T07:50:41.659Z,8.45
2022-07-25T07:53:08.571Z,7.65
2022-07-25T07:55:44.220Z,7.60
2022-07-25T07:58:17.282Z,8.23
2022-07-25T08:00:51.611Z,7.85
2022-07-25T08:03:21.757Z,7.40
2022-07-25T08:05:49.842Z,7.80
2022-07-25T08:08:16.968Z,7.88
2022-07-25T08:10:47.315Z,8.43
2022-07-25T08:15:57.227Z,7.53
2022-07-25T08:18:25.861Z,7.13
2022-07-25T08:20:53.645Z,7.78
2022-07-25T08:23:20.710Z,7.53
2022-07-25T08:25:48.620Z,7.47
2022-07-25T08:28:15.525Z,8.15
2022-07-25T08:30:43.443Z,7.13
2022-07-25T08:33:13.695Z,7.85
2022-07-25T08:38:12.259Z,7.00
2022-07-25T08:40:39.398Z,7.05
2022-07-25T08:43:06.529Z,7.15
2022-07-25T08:45:34.057Z,7.28
2022-07-25T08:48:00.920Z,6.47
2022-07-25T08:50:30.149Z,6.90
2022-07-25T08:53:16.622Z,7.38
2022-07-25T08:55:45.797Z,7.85
2022-07-25T08:58:15.289Z,6.95
2022-07-25T09:00:43.191Z,6.28
2022-07-25T09:03:10.929Z,6.00
2022-07-25T09:05:39.285Z,6.72
2022-07-25T09:08:12.678Z,6.30
2022-07-25T09:10:45.347Z,7.10
2022-07-25T09:13:14.605Z,7.43
2022-07-25T09:15:50.290Z,6.63
2022-07-25T09:18:23.227Z,6.70
2022-07-25T09:20:58.558Z,6.18
2022-07-25T09:23:31.109Z,6.50
2022-07-25T09:26:15.018Z,6.30
2022-07-25T09:28:48.257Z,6.53
2022-07-25T09:31:18.912Z,7.05
2022-07-25T09:33:57.000Z,6.68
2022-07-25T09:36:24.348Z,6.63
2022-07-25T09:39:01.323Z,5.38
2022-07-25T09:41:40.619Z,6.05
2022-07-25T09:44:30.270Z,6.55
2022-07-25T09:49:53.301Z,5.68
2022-07-25T09:52:20.340Z,5.60
2022-07-25T09:54:47.214Z,5.45
2022-07-25T09:57:14.154Z,4.97
2022-07-25T09:59:41.235Z,5.25
2022-07-25T10:02:32.552Z,5.18
2022-07-25T10:05:48.230Z,5.43
2022-07-25T10:08:15.462Z,5.20
2022-07-25T10:10:43.005Z,5.13
2022-07-25T10:13:15.376Z,5.20
2022-07-25T10:15:52.061Z,4.57
2022-07-25T10:18:28.266Z,4.82
2022-07-25T10:21:25.522Z,4.78
2022-07-25T10:24:06.950Z,5.22
2022-07-25T10:26:39.793Z,4.50
2022-07-25T10:29:13.936Z,4.70
2022-07-25T10:31:50.422Z,4.82
2022-07-25T10:34:31.007Z,4.60
2022-07-25T10:37:15.331Z,4.07
2022-07-25T10:39:45.493Z,4.20
2022-07-25T10:42:20.720Z,4.53
2022-07-25T10:44:57.485Z,4.10
2022-07-25T10:47:27.999Z,4.65
2022-07-25T10:53:00.634Z,4.60
2022-07-25T10:55:29.099Z,4.70
2022-07-25T10:58:21.624Z,5.18
2022-07-25T11:00:51.089Z,4.93
2022-07-25T11:03:18.822Z,5.15
2022-07-25T11:05:47.723Z,4.97
2022-07-25T11:08:23.063Z,4.53
2022-07-25T11:10:53.489Z,4.70
2022-07-25T11:13:21.152Z,4.07
2022-07-25T11:15:48.661Z,4.68
2022-07-25T11:18:15.915Z,4.85
2022-07-25T11:20:42.791Z,3.80
2022-07-25T11:23:09.892Z,4.30
2022-07-25T11:25:36.741Z,4.28
2022-07-25T11:28:04.115Z,4.72
2022-07-25T11:30:31.155Z,4.60
2022-07-25T11:33:01.686Z,3.38
2022-07-25T11:35:32.423Z,3.75
2022-07-25T11:38:02.305Z,3.38
2022-07-25T11:40:31.495Z,3.30
2022-07-25T11:43:00.359Z,3.87
2022-07-25T11:45:34.097Z,3.95
2022-07-25T11:48:13.403Z,4.00
2022-07-25T11:50:43.541Z,3.47
2022-07-25T11:53:14.930Z,3.55
2022-07-25T11:55:44.008Z,3.95
2022-07-25T11:58:13.070Z,3.25
2022-07-25T12:00:43.916Z,3.30
2022-07-25T12:03:21.140Z,3.15
2022-07-25T12:05:50.160Z,3.40
2022-07-25T12:08:20.719Z,4.32
2022-07-25T12:10:51.396Z,3.38
2022-07-25T12:13:25.659Z,4.10
2022-07-25T12:15:53.079Z,3.47
2022-07-25T12:18:20.078Z,3.55
2022-07-25T12:20:46.917Z,3.47
2022-07-25T12:23:14.305Z,3.80
2022-07-25T12:25:45.079Z,3.35
2022-07-25T12:28:12.777Z,3.20
2022-07-25T12:30:42.175Z,3.75
2022-07-25T12:33:10.171Z,4.78
2022-07-25T12:35:37.488Z,3.80
2022-07-25T12:38:04.888Z,4.10
2022-07-25T12:40:32.101Z,3.97
2022-07-25T12:42:59.466Z,3.95
2022-07-25T12:45:27.236Z,4.43
2022-07-25T12:47:54.484Z,3.50
2022-07-25T12:50:21.667Z,4.30
2022-07-25T12:52:48.958Z,3.75
2022-07-25T12:55:18.164Z,3.60
2022-07-25T12:57:46.475Z,3.95
2022-07-25T13:00:16.886Z,3.60
2022-07-25T13:02:44.101Z,4.03
2022-07-25T13:05:11.526Z,4.38
2022-07-25T13:07:38.748Z,3.80
2022-07-25T13:10:07.535Z,3.60
2022-07-25T13:12:34.589Z,4.10
2022-07-25T13:15:01.895Z,3.97
2022-07-25T13:17:28.798Z,3.83
2022-07-25T13:19:56.723Z,4.50
2022-07-25T13:22:25.538Z,3.80
2022-07-25T13:24:53.608Z,3.90
2022-07-25T13:27:22.336Z,3.85
2022-07-25T13:29:56.220Z,4.47
2022-07-25T13:32:23.570Z,3.78
2022-07-25T13:34:50.643Z,4.30
2022-07-25T13:37:17.738Z,4.88
2022-07-25T13:39:44.932Z,4.65
2022-07-25T13:42:11.805Z,4.18
2022-07-25T13:44:38.811Z,4.00
2022-07-25T13:47:06.129Z,3.92
2022-07-25T13:49:33.106Z,4.30
2022-07-25T13:51:59.957Z,4.45
2022-07-25T13:54:27.083Z,3.90
2022-07-25T13:56:54.018Z,4.78
2022-07-25T13:59:21.852Z,3.88
2022-07-25T14:01:50.453Z,3.60
2022-07-25T14:04:17.806Z,4.10
2022-07-25T14:06:44.942Z,4.30
2022-07-25T14:09:11.991Z,3.42
2022-07-25T14:11:39.105Z,3.35
2022-07-25T14:14:06.049Z,3.35
2022-07-25T14:16:34.430Z,3.45
2022-07-25T14:19:02.487Z,3.50
2022-07-25T14:21:30.349Z,2.97
2022-07-25T14:23:57.267Z,3.25
2022-07-25T14:26:25.777Z,3.08
2022-07-25T14:28:52.783Z,3.00
2022-07-25T14:31:19.647Z,3.08
2022-07-25T14:33:46.954Z,2.85
2022-07-25T14:36:13.905Z,2.95
2022-07-25T14:38:40.831Z,2.80
2022-07-25T14:41:12.379Z,2.65
2022-07-25T14:43:41.102Z,2.65
2022-07-25T14:46:08.984Z,3.20
2022-07-25T14:48:37.684Z,3.13
2022-07-25T14:51:06.064Z,3.03
2022-07-25T14:53:34.763Z,3.10
2022-07-25T14:56:04.894Z,3.00
2022-07-25T14:58:33.542Z,2.38
2022-07-25T15:01:00.739Z,2.78
2022-07-25T15:03:27.737Z,3.28
2022-07-25T15:05:54.678Z,2.63
2022-07-25T15:08:22.010Z,2.72
2022-07-25T15:10:49.061Z,2.88
2022-07-25T15:13:32.346Z,2.80
2022-07-25T15:16:00.810Z,2.65
2022-07-25T15:18:28.657Z,2.30
2022-07-25T15:20:55.863Z,2.42
2022-07-25T15:23:25.090Z,2.35
2022-07-25T15:26:02.949Z,2.10
2022-07-25T15:28:36.558Z,2.40
2022-07-25T15:31:04.843Z,3.72
2022-07-25T15:33:32.132Z,2.45
2022-07-25T15:35:59.481Z,3.03
2022-07-25T15:38:26.476Z,2.53
2022-07-25T15:40:53.689Z,2.58
2022-07-25T15:43:21.160Z,2.20
2022-07-25T15:45:48.058Z,2.58
2022-07-25T15:48:16.827Z,2.13
2022-07-25T15:50:47.867Z,2.08
2022-07-25T15:53:15.248Z,2.58
2022-07-25T15:55:43.231Z,3.17
2022-07-25T15:58:11.277Z,2.30
2022-07-25T16:00:39.987Z,2.33
2022-07-25T16:03:07.945Z,2.50
2022-07-25T16:05:35.486Z,2.30
2022-07-25T16:08:03.585Z,2.15
2022-07-25T16:10:32.735Z,2.30
2022-07-25T16:12:59.997Z,2.30
2022-07-25T16:15:27.296Z,2.15
2022-07-25T16:18:01.831Z,1.83
2022-07-25T16:20:31.552Z,1.88
2022-07-25T16:22:59.720Z,2.17
2022-07-25T16:25:29.195Z,2.08
2022-07-25T16:30:24.110Z,1.38
2022-07-25T16:32:51.089Z,2.03
2022-07-25T16:35:18.010Z,3.05
2022-07-25T16:37:45.246Z,1.80
2022-07-25T16:40:12.662Z,1.90
2022-07-25T16:42:39.674Z,1.80
2022-07-25T16:45:07.332Z,2.17
2022-07-25T16:47:34.799Z,2.15
2022-07-25T16:50:01.714Z,2.10
2022-07-25T16:52:28.713Z,2.20
2022-07-25T16:54:55.608Z,2.00
2022-07-25T16:57:23.802Z,2.80
2022-07-25T17:02:25.041Z,2.20
2022-07-25T17:04:54.855Z,2.28
2022-07-25T17:07:21.841Z,2.67
2022-07-25T17:09:48.748Z,2.70
2022-07-25T17:12:17.364Z,2.90
2022-07-25T17:14:45.292Z,3.33
2022-07-25T17:17:13.054Z,6.18
2022-07-25T17:19:40.205Z,3.20
2022-07-25T17:22:08.297Z,3.03
2022-07-25T17:24:35.661Z,3.75
2022-07-25T17:27:03.148Z,3.33
2022-07-25T17:29:30.255Z,3.90
2022-07-25T17:31:57.543Z,4.30
2022-07-25T17:34:26.702Z,4.03
2022-07-25T17:36:55.484Z,3.93
2022-07-25T17:39:22.633Z,4.20
2022-07-25T17:41:52.579Z,4.18
2022-07-25T17:44:20.229Z,4.22
2022-07-25T17:46:47.494Z,4.25
2022-07-25T17:49:14.655Z,4.05
2022-07-25T17:51:41.675Z,4.38
2022-07-25T17:54:09.113Z,4.20
2022-07-25T17:56:37.077Z,4.18
2022-07-25T17:59:04.164Z,3.95
2022-07-25T18:01:31.059Z,4.13
2022-07-25T18:03:58.232Z,3.83
2022-07-25T18:06:29.727Z,3.85
2022-07-25T18:08:57.788Z,4.13
2022-07-25T18:11:27.163Z,4.68
2022-07-25T18:13:54.104Z,4.63
2022-07-25T18:16:21.254Z,4.43
2022-07-25T18:18:48.266Z,4.22
2022-07-25T18:21:15.191Z,4.50
2022-07-25T18:23:42.085Z,4.18
2022-07-25T18:26:09.473Z,4.20
2022-07-25T18:28:36.760Z,3.88
2022-07-25T18:31:04.576Z,4.22
2022-07-25T18:33:31.663Z,8.43
2022-07-25T18:36:00.106Z,3.75
2022-07-25T18:41:18.874Z,3.60
2022-07-25T18:43:42.889Z,3.28
2022-07-25T18:46:12.865Z,3.47
2022-07-25T18:48:42.920Z,3.72
2022-07-25T18:51:10.611Z,3.72
2022-07-25T18:53:38.355Z,3.97
2022-07-25T18:56:05.911Z,4.18
2022-07-25T18:58:33.398Z,4.30
2022-07-25T19:01:02.697Z,4.00
2022-07-25T19:03:31.575Z,3.75
2022-07-25T19:06:03.083Z,3.88
2022-07-25T19:08:30.518Z,4.20
2022-07-25T19:10:57.439Z,3.92
2022-07-25T19:13:47.615Z,4.32
2022-07-25T19:16:12.059Z,4.15
2022-07-25T19:18:40.068Z,4.40
2022-07-25T19:21:07.457Z,3.72
2022-07-25T19:23:34.762Z,3.80
2022-07-25T19:26:02.629Z,4.25
2022-07-25T19:28:29.685Z,4.00
2022-07-25T19:30:57.174Z,4.20
2022-07-25T19:33:24.420Z,4.55
2022-07-25T19:35:52.463Z,3.70
2022-07-25T19:38:20.145Z,4.70
2022-07-25T19:40:47.197Z,3.80
2022-07-25T19:43:14.285Z,4.95
2022-07-25T19:45:41.407Z,4.25
2022-07-25T19:48:08.467Z,4.20
2022-07-25T19:50:35.435Z,4.93
2022-07-25T19:53:02.760Z,3.85
2022-07-25T19:55:29.719Z,4.38
2022-07-25T19:57:56.740Z,3.85
2022-07-25T20:00:23.834Z,4.50
2022-07-25T20:02:50.889Z,3.67
2022-07-25T20:05:19.314Z,3.83
2022-07-25T20:07:46.343Z,3.97
2022-07-25T20:10:13.390Z,4.03
2022-07-25T20:12:44.996Z,4.20
2022-07-25T20:15:11.951Z,4.28
2022-07-25T20:17:39.335Z,4.13
2022-07-25T20:20:08.550Z,4.13
2022-07-25T20:22:39.533Z,3.80
2022-07-25T20:25:12.863Z,4.13
2022-07-25T20:27:39.856Z,4.55
2022-07-25T20:30:09.061Z,3.72
2022-07-25T20:32:36.422Z,4.32
2022-07-25T20:35:05.513Z,3.70
2022-07-25T20:37:32.595Z,4.05
2022-07-25T20:39:59.514Z,3.63
2022-07-25T20:42:26.512Z,4.00
2022-07-25T20:44:53.421Z,4.20
2022-07-25T20:47:20.465Z,4.88
2022-07-25T20:49:47.517Z,4.07
2022-07-25T20:52:14.473Z,4.18
2022-07-25T20:54:42.985Z,4.75
2022-07-25T20:57:11.534Z,6.28
2022-07-25T20:59:38.459Z,4.53
2022-07-25T21:02:05.697Z,4.13
2022-07-25T21:04:32.648Z,4.32
2022-07-25T21:06:59.503Z,3.67
2022-07-25T21:09:30.888Z,4.05
2022-07-25T21:12:01.344Z,4.18
2022-07-25T21:14:28.938Z,4.15
2022-07-25T21:16:56.121Z,4.63
2022-07-25T21:19:23.237Z,4.70
2022-07-25T21:21:50.906Z,5.60
2022-07-25T21:24:17.763Z,5.10
2022-07-25T21:26:45.101Z,5.20
2022-07-25T21:29:12.331Z,4.28
2022-07-25T21:31:40.098Z,4.50
2022-07-25T21:34:07.084Z,4.90
2022-07-25T21:36:34.932Z,5.68
2022-07-25T21:39:01.842Z,6.38
2022-07-25T21:41:28.710Z,6.35
2022-07-25T21:43:55.731Z,6.03
2022-07-25T21:46:22.730Z,4.93
2022-07-25T21:49:08.644Z,6.95
2022-07-25T21:51:40.937Z,3.92
2022-07-25T21:54:08.629Z,3.75
2022-07-25T21:56:35.593Z,2.97
2022-07-25T21:59:02.495Z,3.95
2022-07-25T22:01:29.759Z,5.25
2022-07-25T22:03:56.753Z,2.85
2022-07-25T22:06:23.747Z,4.38
2022-07-25T22:08:50.649Z,2.80
2022-07-25T22:11:43.113Z,3.63
2022-07-25T22:14:04.669Z,3.65
2022-07-25T22:16:31.954Z,3.88
2022-07-25T22:18:59.662Z,4.07
2022-07-25T22:21:27.003Z,5.28
2022-07-25T22:23:53.855Z,4.85
2022-07-25T22:26:21.215Z,4.07
2022-07-25T22:28:49.150Z,4.95
2022-07-25T22:31:17.477Z,5.18
2022-07-25T22:33:44.478Z,7.25
2022-07-25T22:36:11.570Z,9.43
2022-07-25T22:38:38.512Z,4.30
2022-07-25T22:41:05.685Z,3.70
2022-07-25T22:43:58.453Z,4.68
2022-07-25T22:46:19.471Z,4.72
2022-07-25T22:48:46.512Z,4.05
2022-07-25T22:51:13.517Z,3.72
2022-07-25T22:53:40.385Z,4.82
2022-07-25T22:56:07.337Z,3.83
2022-07-25T22:58:34.223Z,4.60
2022-07-25T23:01:01.129Z,4.50
2022-07-25T23:03:31.542Z,3.90
2022-07-25T23:06:01.130Z,3.55
2022-07-25T23:08:28.401Z,4.38
2022-07-25T23:10:55.732Z,3.70
2022-07-25T23:13:22.830Z,4.13
2022-07-25T23:15:51.565Z,3.30
2022-07-25T23:18:19.471Z,3.13
2022-07-25T23:20:46.934Z,4.13
2022-07-25T23:23:14.017Z,3.15
2022-07-25T23:25:40.919Z,5.85
2022-07-25T23:28:07.815Z,3.53
2022-07-25T23:30:40.085Z,3.47
2022-07-25T23:33:08.629Z,3.20
2022-07-25T23:35:35.822Z,3.90
2022-07-25T23:38:03.683Z,6.57
2022-07-25T23:40:31.098Z,4.28
2022-07-25T23:42:57.977Z,3.65
2022-07-25T23:45:27.708Z,4.13
2022-07-25T23:47:55.840Z,3.05
2022-07-25T23:50:23.877Z,3.35
2022-07-25T23:52:51.455Z,2.92
2022-07-25T23:55:18.455Z,6.45
2022-07-25T23:57:45.611Z,3.33
